createdAt,value
2022-12-24T00:01:01.531Z,1.02
2022-12-24T00:03:28.118Z,2.28
2022-12-24T00:05:54.691Z,1.90
2022-12-24T00:08:21.163Z,1.83
2022-12-24T00:10:53.156Z,1.67
2022-12-24T00:13:20.364Z,1.65
2022-12-24T00:15:47.328Z,1.88
2022-12-24T00:18:13.772Z,1.30
2022-12-24T00:20:40.316Z,1.00
2022-12-24T00:23:07.878Z,1.65
2022-12-24T00:25:34.421Z,2.55
2022-12-24T00:28:00.822Z,3.60
2022-12-24T00:30:27.297Z,1.20
2022-12-24T00:32:53.794Z,6.72
2022-12-24T00:35:20.200Z,2.55
2022-12-24T00:37:50.379Z,1.60
2022-12-24T00:40:18.140Z,0.60
2022-12-24T00:42:44.645Z,2.05
2022-12-24T00:45:17.082Z,1.33
2022-12-24T00:47:43.499Z,0.70
2022-12-24T00:50:10.157Z,0.85
2022-12-24T00:52:36.592Z,1.60
2022-12-24T00:55:03.191Z,1.08
2022-12-24T00:57:29.671Z,1.85
2022-12-24T00:59:56.092Z,1.73
2022-12-24T01:02:23.428Z,1.25
2022-12-24T01:05:08.697Z,1.95
2022-12-24T01:07:35.668Z,1.85
2022-12-24T01:10:02.144Z,0.57
2022-12-24T01:12:28.630Z,1.33
2022-12-24T01:15:08.751Z,1.73
2022-12-24T01:17:36.023Z,1.80
2022-12-24T01:20:05.332Z,2.05
2022-12-24T01:22:31.875Z,1.25
2022-12-24T01:24:58.249Z,2.13
2022-12-24T01:27:24.651Z,1.13
2022-12-24T01:29:51.011Z,1.20
2022-12-24T01:32:17.404Z,0.85
2022-12-24T01:34:43.864Z,1.33
2022-12-24T01:37:10.259Z,1.33
2022-12-24T01:39:36.684Z,0.60
2022-12-24T01:42:38.696Z,2.42
2022-12-24T01:45:42.907Z,1.45
2022-12-24T01:48:37.456Z,1.25
2022-12-24T01:51:29.435Z,1.63
2022-12-24T01:54:05.267Z,1.55
2022-12-24T01:56:32.812Z,1.67
2022-12-24T01:59:06.653Z,3.00
2022-12-24T02:01:33.469Z,0.90
2022-12-24T02:04:05.547Z,1.05
2022-12-24T02:06:31.934Z,1.02
2022-12-24T02:08:58.342Z,2.85
2022-12-24T02:11:24.728Z,1.67
2022-12-24T02:13:55.436Z,3.60
2022-12-24T02:16:35.034Z,0.90
2022-12-24T02:19:21.428Z,0.80
2022-12-24T02:22:01.775Z,1.15
2022-12-24T02:24:58.922Z,4.68
2022-12-24T02:27:45.319Z,1.17
2022-12-24T02:30:16.136Z,4.30
2022-12-24T02:32:45.549Z,1.48
2022-12-24T02:35:29.706Z,1.48
2022-12-24T02:38:08.073Z,1.00
2022-12-24T02:40:43.101Z,3.90
2022-12-24T02:43:15.026Z,2.55
2022-12-24T02:45:45.807Z,2.90
2022-12-24T02:48:16.596Z,2.65
2022-12-24T02:50:58.545Z,1.63
2022-12-24T02:53:25.025Z,2.15
2022-12-24T02:56:12.595Z,2.38
2022-12-24T02:58:58.343Z,1.10
2022-12-24T03:01:32.975Z,2.13
2022-12-24T03:04:39.391Z,3.47
2022-12-24T03:07:15.044Z,1.25
2022-12-24T03:09:57.270Z,1.08
2022-12-24T03:12:34.730Z,1.40
2022-12-24T03:15:02.425Z,4.40
2022-12-24T03:17:29.888Z,2.13
2022-12-24T03:19:56.326Z,0.68
2022-12-24T03:22:24.992Z,0.82
2022-12-24T03:24:51.501Z,1.73
2022-12-24T03:27:18.224Z,1.80
2022-12-24T03:29:46.472Z,2.75
2022-12-24T03:32:12.959Z,0.98
2022-12-24T03:34:51.849Z,2.58
2022-12-24T03:37:18.220Z,1.13
2022-12-24T03:39:44.593Z,0.68
2022-12-24T03:42:11.171Z,1.95
2022-12-24T03:44:37.539Z,1.23
2022-12-24T03:47:04.013Z,0.73
2022-12-24T03:49:30.716Z,1.60
2022-12-24T03:51:57.116Z,0.93
2022-12-24T03:54:23.595Z,0.73
2022-12-24T03:56:50.001Z,0.63
2022-12-24T03:59:16.405Z,0.57
2022-12-24T04:01:42.933Z,0.90
2022-12-24T04:04:09.390Z,0.85
2022-12-24T04:06:35.818Z,1.23
2022-12-24T04:09:04.970Z,1.83
2022-12-24T04:11:32.302Z,0.85
2022-12-24T04:13:59.421Z,0.75
2022-12-24T04:16:26.094Z,0.47
2022-12-24T04:18:52.504Z,0.40
2022-12-24T04:21:18.898Z,0.60
2022-12-24T04:23:45.593Z,0.77
2022-12-24T04:26:13.193Z,1.90
2022-12-24T04:28:41.523Z,1.40
2022-12-24T04:31:16.857Z,3.63
2022-12-24T04:33:44.807Z,0.75
2022-12-24T04:36:17.249Z,3.40
2022-12-24T04:38:44.571Z,1.33
2022-12-24T04:41:23.738Z,1.27
2022-12-24T04:43:54.810Z,1.40
2022-12-24T04:46:27.149Z,0.77
2022-12-24T04:48:54.563Z,1.55
2022-12-24T04:51:21.427Z,2.25
2022-12-24T04:53:47.883Z,0.70
2022-12-24T04:56:16.696Z,2.20
2022-12-24T04:58:43.083Z,2.50
2022-12-24T05:01:13.899Z,0.80
2022-12-24T05:03:40.480Z,1.90
2022-12-24T05:06:10.524Z,0.63
2022-12-24T05:08:36.939Z,1.60
2022-12-24T05:11:03.367Z,2.10
2022-12-24T05:13:37.920Z,0.68
2022-12-24T05:16:10.095Z,2.22
2022-12-24T05:18:36.680Z,2.50
2022-12-24T05:21:07.206Z,2.42
2022-12-24T05:23:52.344Z,3.53
2022-12-24T05:26:29.879Z,3.90
2022-12-24T05:28:59.286Z,1.27
2022-12-24T05:31:28.173Z,2.55
2022-12-24T05:33:54.874Z,0.65
2022-12-24T05:36:22.817Z,1.33
2022-12-24T05:38:49.390Z,2.65
2022-12-24T05:41:15.768Z,0.82
2022-12-24T05:43:42.274Z,0.85
2022-12-24T05:46:11.318Z,0.50
2022-12-24T05:48:37.865Z,1.52
2022-12-24T05:51:09.616Z,2.00
2022-12-24T05:53:36.387Z,2.22
2022-12-24T05:56:08.801Z,2.47
2022-12-24T05:58:35.188Z,1.13
2022-12-24T06:01:02.545Z,2.08
2022-12-24T06:03:29.467Z,1.45
2022-12-24T06:06:05.080Z,2.05
2022-12-24T06:08:32.573Z,1.35
2022-12-24T06:11:00.847Z,1.38
2022-12-24T06:13:27.876Z,1.23
2022-12-24T06:15:56.159Z,0.60
2022-12-24T06:18:22.930Z,0.43
2022-12-24T06:20:57.239Z,0.85
2022-12-24T06:23:24.596Z,1.20
2022-12-24T06:25:51.594Z,0.50
2022-12-24T06:28:18.398Z,0.40
2022-12-24T06:30:50.216Z,2.05
2022-12-24T06:33:17.563Z,2.15
2022-12-24T06:35:47.994Z,2.75
2022-12-24T06:38:15.802Z,1.27
2022-12-24T06:40:59.845Z,1.00
2022-12-24T06:43:26.273Z,1.23
2022-12-24T06:45:53.459Z,0.52
2022-12-24T06:48:19.890Z,0.77
2022-12-24T06:50:46.709Z,1.80
2022-12-24T06:53:13.369Z,1.05
2022-12-24T06:55:39.839Z,1.15
2022-12-24T06:58:06.384Z,1.27
2022-12-24T07:00:32.888Z,0.32
2022-12-24T07:03:04.520Z,1.20
2022-12-24T07:05:44.196Z,2.92
2022-12-24T07:08:10.627Z,3.15
2022-12-24T07:10:37.022Z,5.03
2022-12-24T07:13:03.618Z,3.33
2022-12-24T07:15:30.148Z,3.65
2022-12-24T07:17:56.562Z,2.13
2022-12-24T07:20:22.998Z,5.80
2022-12-24T07:22:49.431Z,1.42
2022-12-24T07:25:16.036Z,6.18
2022-12-24T07:27:42.669Z,3.05
2022-12-24T07:30:09.713Z,3.70
2022-12-24T07:32:36.178Z,3.30
2022-12-24T07:35:06.268Z,1.48
2022-12-24T07:37:33.720Z,0.65
2022-12-24T07:40:00.229Z,6.13
2022-12-24T07:42:26.860Z,15.23
2022-12-24T07:44:53.304Z,24.38
2022-12-24T07:47:19.817Z,2.75
2022-12-24T07:49:46.235Z,5.47
2022-12-24T07:52:16.115Z,3.25
2022-12-24T07:54:42.523Z,2.20
2022-12-24T07:57:08.975Z,1.15
2022-12-24T07:59:35.354Z,1.25
2022-12-24T08:02:01.901Z,2.03
2022-12-24T08:04:42.994Z,1.38
2022-12-24T08:07:09.367Z,0.35
2022-12-24T08:09:37.229Z,2.13
2022-12-24T08:12:12.739Z,1.27
2022-12-24T08:14:39.133Z,0.97
2022-12-24T08:17:05.508Z,2.40
2022-12-24T08:19:31.898Z,0.95
2022-12-24T08:21:58.268Z,1.40
2022-12-24T08:24:24.648Z,1.55
2022-12-24T08:26:51.037Z,1.88
2022-12-24T08:29:20.578Z,1.30
2022-12-24T08:31:47.012Z,0.40
2022-12-24T08:34:13.474Z,0.90
2022-12-24T08:36:40.491Z,1.80
2022-12-24T08:39:14.091Z,1.13
2022-12-24T08:41:40.468Z,0.70
2022-12-24T08:44:06.947Z,1.15
2022-12-24T08:46:33.378Z,0.80
2022-12-24T08:48:59.747Z,0.38
2022-12-24T08:51:26.187Z,0.43
2022-12-24T08:53:52.608Z,2.47
2022-12-24T08:56:30.116Z,0.93
2022-12-24T08:58:56.491Z,1.30
2022-12-24T09:01:22.948Z,1.58
2022-12-24T09:03:49.463Z,1.10
2022-12-24T09:06:27.063Z,0.38
2022-12-24T09:08:53.446Z,1.75
2022-12-24T09:11:20.572Z,0.50
2022-12-24T09:13:47.139Z,0.60
2022-12-24T09:16:13.744Z,2.15
2022-12-24T09:18:40.529Z,1.33
2022-12-24T09:21:14.379Z,1.50
2022-12-24T09:23:42.151Z,1.10
2022-12-24T09:26:16.681Z,2.15
2022-12-24T09:28:43.135Z,0.80
2022-12-24T09:31:13.601Z,2.30
2022-12-24T09:33:41.972Z,2.92
2022-12-24T09:36:09.371Z,0.98
2022-12-24T09:38:40.786Z,1.45
2022-12-24T09:41:15.382Z,2.20
2022-12-24T09:43:47.458Z,1.65
2022-12-24T09:46:30.653Z,3.10
2022-12-24T09:49:09.353Z,1.27
2022-12-24T09:51:53.737Z,2.58
2022-12-24T09:54:32.576Z,2.50
2022-12-24T09:57:14.008Z,3.28
2022-12-24T09:59:45.317Z,1.88
2022-12-24T10:02:15.619Z,4.88
2022-12-24T10:04:44.173Z,3.58
2022-12-24T10:07:16.544Z,2.75
2022-12-24T10:10:11.863Z,1.80
2022-12-24T10:13:04.492Z,1.80
2022-12-24T10:15:34.864Z,7.65
2022-12-24T10:18:07.572Z,3.53
2022-12-24T10:20:44.431Z,5.55
2022-12-24T10:23:17.602Z,2.00
2022-12-24T10:26:11.692Z,2.05
2022-12-24T10:28:52.267Z,1.35
2022-12-24T10:31:23.804Z,1.67
2022-12-24T10:33:57.619Z,0.77
2022-12-24T10:36:27.571Z,0.95
2022-12-24T10:38:54.340Z,0.50
2022-12-24T10:41:21.787Z,0.77
2022-12-24T10:43:49.359Z,1.08
2022-12-24T10:46:28.112Z,1.58
2022-12-24T10:48:59.108Z,1.17
2022-12-24T10:51:32.616Z,1.20
2022-12-24T10:54:07.429Z,1.20
2022-12-24T10:56:41.169Z,1.48
2022-12-24T10:59:23.610Z,0.70
2022-12-24T11:01:50.748Z,0.75
2022-12-24T11:04:20.733Z,0.65
2022-12-24T11:07:05.290Z,0.68
2022-12-24T11:09:35.161Z,0.73
2022-12-24T11:12:08.955Z,0.80
2022-12-24T11:14:38.625Z,1.40
2022-12-24T11:17:05.876Z,0.77
2022-12-24T11:19:41.108Z,1.60
2022-12-24T11:22:19.251Z,1.80
2022-12-24T11:24:50.040Z,2.00
2022-12-24T11:27:49.678Z,2.15
2022-12-24T11:30:16.276Z,1.95
2022-12-24T11:32:45.269Z,1.30
2022-12-24T11:35:24.438Z,1.50
2022-12-24T11:37:59.890Z,0.43
2022-12-24T11:40:35.592Z,0.87
2022-12-24T11:43:05.437Z,0.75
2022-12-24T11:45:54.264Z,3.60
2022-12-24T11:48:33.805Z,1.77
2022-12-24T11:51:06.296Z,1.65
2022-12-24T11:53:48.696Z,1.90
2022-12-24T11:56:46.503Z,1.83
2022-12-24T11:59:25.085Z,1.10
2022-12-24T12:02:27.711Z,1.50
2022-12-24T12:05:08.167Z,2.30
2022-12-24T12:08:12.925Z,2.42
2022-12-24T12:10:43.455Z,2.38
2022-12-24T12:13:26.921Z,1.73
2022-12-24T12:16:10.868Z,2.95
2022-12-24T12:18:47.553Z,1.42
2022-12-24T12:21:19.147Z,2.88
2022-12-24T12:23:57.674Z,1.42
2022-12-24T12:26:30.074Z,2.20
2022-12-24T12:29:28.808Z,2.15
2022-12-24T12:32:02.284Z,5.07
2022-12-24T12:34:39.005Z,6.05
2022-12-24T12:37:31.097Z,3.13
2022-12-24T12:40:02.102Z,5.43
2022-12-24T12:42:39.527Z,6.30
2022-12-24T12:45:24.593Z,3.05
2022-12-24T12:48:26.156Z,3.05
2022-12-24T12:51:32.276Z,2.55
2022-12-24T12:54:26.584Z,1.70
2022-12-24T12:56:56.484Z,2.47
2022-12-24T12:59:46.817Z,2.85
2022-12-24T13:02:45.391Z,4.65
2022-12-24T13:05:54.764Z,2.85
2022-12-24T13:08:37.417Z,2.25
2022-12-24T13:11:09.767Z,4.28
2022-12-24T13:13:58.878Z,3.05
2022-12-24T13:16:53.245Z,3.13
2022-12-24T13:19:38.459Z,2.97
2022-12-24T13:22:17.653Z,4.03
2022-12-24T13:24:52.638Z,3.72
2022-12-24T13:27:31.745Z,1.50
2022-12-24T13:30:34.426Z,3.33
2022-12-24T13:33:34.253Z,6.15
2022-12-24T13:36:16.536Z,5.40
2022-12-24T13:38:53.516Z,3.05
2022-12-24T13:41:38.853Z,4.80
2022-12-24T13:46:58.089Z,4.43
2022-12-24T13:49:55.071Z,2.30
2022-12-24T13:52:28.698Z,3.80
2022-12-24T13:55:13.533Z,4.57
2022-12-24T13:57:44.839Z,2.50
2022-12-24T14:00:30.614Z,5.45
2022-12-24T14:03:09.437Z,3.95
2022-12-24T14:05:46.386Z,3.40
2022-12-24T14:08:25.623Z,3.15
2022-12-24T14:11:18.317Z,3.08
2022-12-24T14:13:48.038Z,3.85
2022-12-24T14:16:19.353Z,3.35
2022-12-24T14:19:09.501Z,3.90
2022-12-24T14:21:42.350Z,1.60
2022-12-24T14:24:23.155Z,2.95
2022-12-24T14:27:43.235Z,3.50
2022-12-24T14:30:20.346Z,2.63
2022-12-24T14:32:48.123Z,1.55
2022-12-24T14:35:18.578Z,4.32
2022-12-24T14:37:48.819Z,4.47
2022-12-24T14:40:21.633Z,5.50
2022-12-24T14:43:06.533Z,5.65
2022-12-24T14:46:15.731Z,3.17
2022-12-24T14:48:56.313Z,3.97
2022-12-24T14:51:39.493Z,6.10
2022-12-24T14:54:16.301Z,4.13
2022-12-24T14:56:42.695Z,4.03
2022-12-24T14:59:20.455Z,4.13
2022-12-24T15:01:47.364Z,4.60
2022-12-24T15:04:13.790Z,10.40
2022-12-24T15:06:53.094Z,3.55
2022-12-24T15:09:23.660Z,2.38
2022-12-24T15:11:53.799Z,3.47
2022-12-24T15:14:23.323Z,3.25
2022-12-24T15:16:58.923Z,3.05
2022-12-24T15:19:35.844Z,2.70
2022-12-24T15:22:04.137Z,1.55
2022-12-24T15:24:34.362Z,3.72
2022-12-24T15:27:03.161Z,2.17
2022-12-24T15:29:32.340Z,2.78
2022-12-24T15:32:01.179Z,1.90
2022-12-24T15:34:30.548Z,2.58
2022-12-24T15:37:06.164Z,2.40
2022-12-24T15:39:33.228Z,4.20
2022-12-24T15:42:15.197Z,2.05
2022-12-24T15:44:50.165Z,1.55
2022-12-24T15:47:21.706Z,3.58
2022-12-24T15:49:50.475Z,4.13
2022-12-24T15:52:19.551Z,1.77
2022-12-24T15:54:52.328Z,1.55
2022-12-24T15:57:31.636Z,1.15
2022-12-24T16:00:00.078Z,1.63
2022-12-24T16:02:49.544Z,2.00
2022-12-24T16:05:29.190Z,2.40
2022-12-24T16:08:23.077Z,1.77
2022-12-24T16:11:06.123Z,1.42
2022-12-24T16:13:35.728Z,1.60
2022-12-24T16:16:05.311Z,2.55
2022-12-24T16:18:42.434Z,5.57
2022-12-24T16:21:09.155Z,3.15
2022-12-24T16:23:48.465Z,3.28
2022-12-24T16:26:21.977Z,3.72
2022-12-24T16:28:48.840Z,2.95
2022-12-24T16:31:18.473Z,4.25
2022-12-24T16:33:46.173Z,3.83
2022-12-24T16:36:13.449Z,4.68
2022-12-24T16:38:58.546Z,3.17
2022-12-24T16:41:27.088Z,4.00
2022-12-24T16:43:53.511Z,3.35
2022-12-24T16:46:32.266Z,4.22
2022-12-24T16:49:17.129Z,4.43
2022-12-24T16:51:45.963Z,5.07
2022-12-24T16:54:13.544Z,2.50
2022-12-24T16:56:43.931Z,3.30
2022-12-24T16:59:17.236Z,7.05
2022-12-24T17:01:52.933Z,7.05
2022-12-24T17:04:19.991Z,6.72
2022-12-24T17:06:50.771Z,17.05
2022-12-24T17:09:17.706Z,32.15
2022-12-24T17:11:44.133Z,55.95
2022-12-24T17:14:23.797Z,41.45
2022-12-24T17:16:50.187Z,23.00
2022-12-24T17:19:17.954Z,13.07
2022-12-24T17:21:44.817Z,13.52
2022-12-24T17:24:12.402Z,10.05
2022-12-24T17:26:38.933Z,18.23
2022-12-24T17:29:05.412Z,9.43
2022-12-24T17:31:33.236Z,11.63
2022-12-24T17:34:00.044Z,11.18
2022-12-24T17:36:26.504Z,12.20
2022-12-24T17:38:52.865Z,14.07
2022-12-24T17:41:20.538Z,12.10
2022-12-24T17:43:47.941Z,11.07
2022-12-24T17:46:27.720Z,21.27
2022-12-24T17:48:55.567Z,18.85
2022-12-24T17:51:28.810Z,17.55
2022-12-24T17:53:56.235Z,27.98
2022-12-24T17:56:23.835Z,23.92
2022-12-24T17:58:50.397Z,13.35
2022-12-24T18:01:33.334Z,10.80
2022-12-24T18:04:10.928Z,13.60
2022-12-24T18:06:43.012Z,12.35
2022-12-24T18:11:43.404Z,5.50
2022-12-24T18:14:13.887Z,1.50
2022-12-24T18:16:41.189Z,6.18
2022-12-24T18:19:10.800Z,18.15
2022-12-24T18:21:37.401Z,9.18
2022-12-24T18:24:05.427Z,8.50
2022-12-24T18:26:33.233Z,16.70
2022-12-24T18:29:01.132Z,15.57
2022-12-24T18:31:37.245Z,11.65
2022-12-24T18:34:06.690Z,11.27
2022-12-24T18:36:33.911Z,26.17
2022-12-24T18:39:02.544Z,24.08
2022-12-24T18:41:30.543Z,11.82
2022-12-24T18:43:58.265Z,6.72
2022-12-24T18:46:27.603Z,8.13
2022-12-24T18:49:00.174Z,7.68
2022-12-24T18:51:31.810Z,9.52
2022-12-24T18:54:08.547Z,9.77
2022-12-24T18:56:36.034Z,8.63
2022-12-24T18:59:03.202Z,6.75
2022-12-24T19:01:35.250Z,8.25
2022-12-24T19:04:05.142Z,7.32
2022-12-24T19:06:31.559Z,9.50
2022-12-24T19:09:07.962Z,9.50
2022-12-24T19:14:04.503Z,13.50
2022-12-24T19:16:34.422Z,10.13
2022-12-24T19:19:04.149Z,13.93
2022-12-24T19:21:30.581Z,11.80
2022-12-24T19:24:01.525Z,11.43
2022-12-24T19:26:37.922Z,7.50
2022-12-24T19:31:37.969Z,15.00
2022-12-24T19:34:14.802Z,14.88
2022-12-24T19:36:41.235Z,17.17
2022-12-24T19:39:07.714Z,16.10
2022-12-24T19:41:35.237Z,21.77
2022-12-24T19:44:02.796Z,19.35
2022-12-24T19:46:32.716Z,16.85
2022-12-24T19:49:11.187Z,22.45
2022-12-24T19:51:38.452Z,32.47
2022-12-24T19:54:13.302Z,22.42
2022-12-24T19:56:43.225Z,17.05
2022-12-24T19:59:10.404Z,14.27
2022-12-24T20:01:54.340Z,17.70
2022-12-24T20:04:51.412Z,20.67
2022-12-24T20:07:19.864Z,18.55
2022-12-24T20:09:46.300Z,17.98
2022-12-24T20:12:15.850Z,19.90
2022-12-24T20:14:42.415Z,20.13
2022-12-24T20:17:09.054Z,14.45
2022-12-24T20:19:42.820Z,15.80
2022-12-24T20:22:09.425Z,13.90
2022-12-24T20:24:35.834Z,16.23
2022-12-24T20:27:02.253Z,14.65
2022-12-24T20:29:28.695Z,13.65
2022-12-24T20:31:55.135Z,14.07
2022-12-24T20:34:21.609Z,14.05
2022-12-24T20:36:48.006Z,11.27
2022-12-24T20:39:27.796Z,10.85
2022-12-24T20:41:54.278Z,9.30
2022-12-24T20:44:20.693Z,8.32
2022-12-24T20:46:47.078Z,9.85
2022-12-24T20:49:13.664Z,8.38
2022-12-24T20:51:40.128Z,7.30
2022-12-24T20:54:11.061Z,6.07
2022-12-24T20:56:41.653Z,5.88
2022-12-24T20:59:08.131Z,4.85
2022-12-24T21:01:48.034Z,5.38
2022-12-24T21:04:18.517Z,3.60
2022-12-24T21:06:45.069Z,4.20
2022-12-24T21:09:19.553Z,3.80
2022-12-24T21:11:57.026Z,4.10
2022-12-24T21:14:25.805Z,3.45
2022-12-24T21:16:54.409Z,4.55
2022-12-24T21:19:24.619Z,6.00
2022-12-24T21:21:56.321Z,7.60
2022-12-24T21:24:22.719Z,7.18
2022-12-24T21:26:58.957Z,5.05
2022-12-24T21:29:30.316Z,4.57
2022-12-24T21:32:03.028Z,3.67
2022-12-24T21:34:30.484Z,5.20
2022-12-24T21:36:56.862Z,3.97
2022-12-24T21:39:23.354Z,4.82
2022-12-24T21:41:49.743Z,5.55
2022-12-24T21:44:16.144Z,7.05
2022-12-24T21:46:42.598Z,8.10
2022-12-24T21:49:47.189Z,11.52
2022-12-24T21:52:13.618Z,9.73
2022-12-24T21:54:48.291Z,9.05
2022-12-24T21:57:40.864Z,9.70
2022-12-24T22:00:24.380Z,9.30
2022-12-24T22:02:55.115Z,8.88
2022-12-24T22:05:22.926Z,8.75
2022-12-24T22:08:22.395Z,8.52
2022-12-24T22:11:07.298Z,8.63
2022-12-24T22:13:33.745Z,8.95
2022-12-24T22:16:00.156Z,8.65
2022-12-24T22:18:34.694Z,10.20
2022-12-24T22:21:02.568Z,10.95
2022-12-24T22:23:28.940Z,10.38
2022-12-24T22:25:57.755Z,10.27
2022-12-24T22:28:24.250Z,12.45
2022-12-24T22:30:50.674Z,11.18
2022-12-24T22:33:17.090Z,12.10
2022-12-24T22:35:43.461Z,13.45
2022-12-24T22:38:10.335Z,11.00
2022-12-24T22:40:39.291Z,12.40
2022-12-24T22:43:07.741Z,12.20
2022-12-24T22:45:34.198Z,11.48
2022-12-24T22:48:00.579Z,11.05
2022-12-24T22:50:27.122Z,12.25
2022-12-24T22:52:57.743Z,13.27
2022-12-24T22:55:24.339Z,15.90
2022-12-24T22:57:50.785Z,13.10
2022-12-24T23:00:38.329Z,12.73
2022-12-24T23:03:05.565Z,13.55
2022-12-24T23:05:44.246Z,16.50
2022-12-24T23:08:12.834Z,16.40
2022-12-24T23:10:40.585Z,16.00
2022-12-24T23:13:25.617Z,14.55
2022-12-24T23:15:52.074Z,13.05
2022-12-24T23:18:18.506Z,15.15
2022-12-24T23:20:47.886Z,13.15
2022-12-24T23:23:15.446Z,15.25
2022-12-24T23:25:41.875Z,16.13
2022-12-24T23:28:08.332Z,16.00
2022-12-24T23:30:35.569Z,17.70
2022-12-24T23:33:02.028Z,16.13
2022-12-24T23:35:28.410Z,14.43
2022-12-24T23:37:54.951Z,13.23
2022-12-24T23:40:32.165Z,15.38
2022-12-24T23:42:58.559Z,15.10
2022-12-24T23:45:25.124Z,13.68
2022-12-24T23:47:56.806Z,13.63
2022-12-24T23:50:32.389Z,14.32
2022-12-24T23:52:58.774Z,11.80
2022-12-24T23:55:28.173Z,13.25
2022-12-24T23:57:54.564Z,12.50
